Time;durP1;ratioP1;P1;durP2;ratioP2;P2;SDS_P1;SDS_P2;PMS_P1;PMS_P2;Temp;Humidity;BMP_temperature;BMP_pressure;BME280_temperature;BME280_humidity;BME280_pressure;Samples;Min_cycle;Max_cycle;Signal;HPM_P1;HPM_P2
2021/12/20 00:01:31;;;;;;;5.20;4.43;;;5.60;86.10;;;5.36;59.17;94421.84;5096023;28;20472;-57
2021/12/20 00:03:59;;;;;;;4.77;4.37;;;5.60;86.30;;;5.35;59.42;94433.25;5094596;28;20450;-59
2021/12/20 00:06:26;;;;;;;4.30;3.83;;;5.50;86.20;;;5.32;59.42;94443.91;5097604;28;20465;-57
2021/12/20 00:08:55;;;;;;;5.13;4.70;;;5.50;86.50;;;5.29;59.19;94428.50;5097634;28;20457;-59
2021/12/20 00:11:22;;;;;;;6.60;4.40;;;5.50;86.30;;;5.25;59.43;94421.84;5091917;28;20481;-57
2021/12/20 00:13:49;;;;;;;4.93;4.43;;;5.50;86.50;;;5.24;59.34;94421.03;5093211;28;20450;-59
2021/12/20 00:16:17;;;;;;;5.07;4.30;;;5.40;86.60;;;5.26;59.33;94423.53;5091585;28;20477;-58
2021/12/20 00:18:44;;;;;;;6.43;4.60;;;5.40;86.80;;;5.25;59.70;94427.91;5091549;28;20481;-57
2021/12/20 00:21:11;;;;;;;5.10;4.20;;;5.40;86.80;;;5.24;59.29;94418.44;5094432;28;20466;-58
2021/12/20 00:23:39;;;;;;;4.20;3.87;;;5.40;86.60;;;5.20;59.35;94419.59;5094990;28;20947;-58
2021/12/20 00:26:09;;;;;;;5.40;4.00;;;5.40;86.30;;;5.19;59.45;94424.00;5097540;28;20470;-57
2021/12/20 00:28:36;;;;;;;3.43;3.17;;;5.40;86.40;;;5.17;59.21;94409.41;5092988;28;20453;-58
2021/12/20 00:31:03;;;;;;;3.33;3.13;;;5.40;86.10;;;5.18;59.22;94400.66;5093351;28;20588;-57
2021/12/20 00:33:33;;;;;;;3.60;3.30;;;5.40;86.20;;;5.16;59.27;94405.16;5094980;28;20970;-58
2021/12/20 00:36:01;;;;;;;4.30;3.77;;;5.40;86.10;;;5.15;59.04;94400.88;5093349;28;20935;-59
2021/12/20 00:41:14;;;;;;;4.63;3.20;;;5.40;86.10;;;5.13;59.15;94402.78;5097402;28;20607;-59
2021/12/20 00:43:41;;;;;;;2.93;2.70;;;5.30;86.20;;;5.15;59.14;94406.09;5098703;28;20454;-58
2021/12/20 00:46:09;;;;;;;6.77;2.97;;;5.30;86.30;;;5.14;58.99;94413.09;5096940;28;21000;-57
2021/12/20 00:48:36;;;;;;;2.60;2.50;;;5.40;86.30;;;5.13;59.08;94416.66;5097953;28;20888;-58
2021/12/20 00:51:04;;;;;;;3.63;3.33;;;5.40;86.10;;;5.14;59.35;94414.84;5098251;28;20473;-58
2021/12/20 00:53:31;;;;;;;3.60;3.40;;;5.40;86.30;;;5.15;59.22;94413.91;5090913;28;20978;-59
2021/12/20 00:55:58;;;;;;;2.87;2.67;;;5.30;86.30;;;5.15;59.19;94412.13;5093953;28;20473;-57
2021/12/20 00:58:27;;;;;;;3.10;2.90;;;5.40;86.40;;;5.18;59.50;94416.28;5093880;28;20566;-58
2021/12/20 01:00:58;;;;;;;4.47;3.43;;;5.40;86.30;;;5.20;59.34;94427.41;5098516;27;20918;-57
2021/12/20 01:03:25;;;;;;;3.43;3.10;;;5.40;86.30;;;5.22;59.91;94430.75;5091013;28;20446;-58
2021/12/20 01:05:53;;;;;;;3.43;2.70;;;5.40;86.30;;;5.25;59.26;94430.53;5092140;28;20542;-57
2021/12/20 01:08:21;;;;;;;5.90;3.10;;;5.40;86.30;;;5.26;59.23;94429.56;5094330;28;20503;-58
2021/12/20 01:10:51;;;;;;;2.83;2.63;;;5.50;86.20;;;5.25;58.97;94438.34;5095690;28;20466;-57
2021/12/20 01:13:21;;;;;;;2.93;2.73;;;5.40;86.10;;;5.25;59.08;94434.88;5096839;28;20862;-56
2021/12/20 01:15:52;;;;;;;3.30;3.10;;;5.40;86.00;;;5.26;59.21;94431.34;5100398;28;20464;-59
2021/12/20 01:18:20;;;;;;;5.00;2.77;;;5.50;86.20;;;5.27;58.94;94435.63;5099471;28;20484;-60
2021/12/20 01:20:48;;;;;;;3.47;3.23;;;5.50;86.10;;;5.30;59.10;94427.53;5093418;28;20473;-60
2021/12/20 01:23:15;;;;;;;2.90;2.70;;;5.50;86.70;;;5.31;58.49;94431.81;5094797;28;20450;-59
2021/12/20 01:25:43;;;;;;;4.43;3.67;;;5.50;85.90;;;5.31;58.78;94432.63;5096689;28;20783;-57
2021/12/20 01:28:10;;;;;;;3.93;3.00;;;5.50;85.90;;;5.32;58.92;94431.69;5092714;28;20874;-59
2021/12/20 01:30:38;;;;;;;3.67;3.33;;;5.50;85.70;;;5.32;58.53;94439.50;5094497;28;20450;-59
2021/12/20 01:33:08;;;;;;;3.40;3.10;;;5.50;85.40;;;5.31;58.84;94432.63;5098746;28;20454;-57
2021/12/20 01:35:35;;;;;;;3.33;3.03;;;5.50;85.40;;;5.30;58.67;94436.19;5095879;28;20454;-58
2021/12/20 01:38:02;;;;;;;4.77;4.03;;;5.50;85.30;;;5.30;58.64;94428.38;5100800;28;20449;-58
2021/12/20 01:40:30;;;;;;;3.30;3.00;;;5.50;85.20;;;5.30;58.72;94420.56;5097210;28;20450;-57
2021/12/20 01:42:58;;;;;;;2.87;2.67;;;5.50;85.30;;;5.30;58.63;94417.94;5090013;28;20454;-58
2021/12/20 01:45:27;;;;;;;3.00;2.70;;;5.50;85.30;;;5.32;58.75;94418.66;5090225;28;20450;-56
2021/12/20 01:48:02;;;;;;;3.40;2.73;;;5.50;85.40;;;5.34;58.81;94421.13;5106990;28;20437;-58
2021/12/20 01:53:25;;;;;;;3.40;3.10;;;5.50;85.30;;;5.37;58.86;94419.09;5072273;28;20510;-58
2021/12/20 01:55:54;;;;;;;2.63;2.43;;;5.50;85.30;;;5.41;58.68;94422.34;5097036;28;20473;-58
2021/12/20 01:58:22;;;;;;;3.40;3.10;;;5.60;85.30;;;5.44;58.81;94421.25;5098694;28;20993;-57
2021/12/20 02:01:03;;;;;;;4.43;2.80;;;5.60;85.60;;;5.45;58.70;94430.72;5094995;28;20493;-58
2021/12/20 02:03:30;;;;;;;2.90;2.70;;;5.60;85.40;;;5.41;58.60;94421.47;5095064;28;20557;-56
2021/12/20 02:05:59;;;;;;;2.90;2.70;;;5.60;85.30;;;5.39;58.45;94429.41;5098107;28;20475;-58
2021/12/20 02:08:29;;;;;;;2.87;2.67;;;5.60;85.20;;;5.39;58.63;94430.28;5098594;27;20465;-57
2021/12/20 02:10:57;;;;;;;3.60;3.30;;;5.60;85.20;;;5.39;58.68;94430.28;5089544;28;20470;-56
2021/12/20 02:13:29;;;;;;;3.37;3.07;;;5.60;85.10;;;5.38;58.53;94433.81;5099178;28;20488;-58
2021/12/20 02:15:57;;;;;;;3.80;3.50;;;5.60;84.80;;;5.39;58.72;94430.28;5098952;28;20889;-60
2021/12/20 02:18:24;;;;;;;4.30;3.30;;;5.60;85.00;;;5.41;58.53;94427.53;5094445;28;20515;-59
2021/12/20 02:20:53;;;;;;;3.30;3.10;;;5.60;85.30;;;5.44;58.59;94432.53;5097633;28;20478;-59
2021/12/20 02:23:20;;;;;;;3.70;3.50;;;5.60;85.30;;;5.44;58.42;94432.53;5098491;28;20448;-57
2021/12/20 02:25:48;;;;;;;4.00;3.60;;;5.60;84.80;;;5.44;58.74;94439.50;5097144;28;20889;-57
2021/12/20 02:28:18;;;;;;;3.60;3.30;;;5.60;84.80;;;5.45;58.61;94433.34;5094727;28;20454;-57
2021/12/20 02:36:51;;;;;;;3.50;3.30;;;5.60;84.80;;;5.45;58.42;94434.16;5094872;28;20442;-58
2021/12/20 02:39:08;;;;;;;4.03;3.70;;;5.60;84.90;;;5.47;58.38;94428.81;5100558;28;20484;-59
2021/12/20 02:41:35;;;;;;;4.30;4.00;;;5.70;85.10;;;5.44;58.59;94429.06;5097858;28;20505;-58
2021/12/20 02:44:05;;;;;;;3.60;3.40;;;5.60;84.90;;;5.42;58.81;94433.59;5098521;28;20453;-58
2021/12/20 02:46:48;;;;;;;4.93;4.13;;;5.60;84.80;;;5.43;58.56;94441.28;5098686;28;21044;-59
2021/12/20 02:49:17;;;;;;;4.67;4.23;;;5.60;84.90;;;5.43;58.92;94440.47;5095491;28;20452;-56
2021/12/20 02:51:47;;;;;;;4.00;3.70;;;5.60;85.30;;;5.45;58.79;94438.56;5096496;28;20461;-58
2021/12/20 02:54:15;;;;;;;3.70;3.40;;;5.60;85.40;;;5.45;58.52;94430.72;5093195;28;20446;-59
2021/12/20 02:56:42;;;;;;;4.20;3.80;;;5.60;85.20;;;5.46;58.50;94435.00;5094915;28;20828;-58
2021/12/20 02:59:10;;;;;;;3.90;3.63;;;5.70;85.20;;;5.47;58.78;94436.66;5092162;28;20588;-55
2021/12/20 03:01:38;;;;;;;3.70;3.40;;;5.60;85.00;;;5.47;58.84;94431.44;5099040;28;20461;-58
2021/12/20 03:04:05;;;;;;;4.43;4.13;;;5.60;85.00;;;5.46;58.74;94432.41;5091903;28;20450;-59
2021/12/20 03:06:38;;;;;;;3.87;3.40;;;5.60;85.20;;;5.46;58.79;94425.41;5093241;28;20481;-57
2021/12/20 03:09:09;;;;;;;4.30;4.00;;;5.70;85.20;;;5.47;58.82;94421.00;5103193;28;20441;-59
2021/12/20 03:11:36;;;;;;;4.43;4.03;;;5.60;85.30;;;5.48;58.77;94422.66;5094666;28;20471;-58
2021/12/20 03:14:11;;;;;;;4.40;4.00;;;5.60;85.30;;;5.50;58.69;94433.81;5097855;28;20449;-58
2021/12/20 03:16:38;;;;;;;4.63;3.30;;;5.70;85.60;;;5.51;58.59;94432.88;5096413;28;20480;-57
2021/12/20 03:19:05;;;;;;;7.10;3.80;;;5.70;85.50;;;5.51;58.64;94417.22;5092986;28;21021;-57
2021/12/20 03:21:33;;;;;;;4.03;3.73;;;5.70;85.00;;;5.52;58.64;94430.13;5098198;28;20489;-57
2021/12/20 03:24:00;;;;;;;5.73;5.17;;;5.70;85.30;;;5.53;58.63;94423.97;5091919;28;20966;-57
2021/12/20 03:26:29;;;;;;;6.03;4.00;;;5.70;85.40;;;5.54;58.86;94420.41;5089288;28;20480;-58
2021/12/20 03:28:56;;;;;;;3.97;3.67;;;5.70;85.60;;;5.56;58.58;94431.56;5088882;28;20515;-57
2021/12/20 03:31:23;;;;;;;4.37;3.97;;;5.70;85.50;;;5.56;58.90;94421.13;5095982;28;20462;-58
2021/12/20 03:33:51;;;;;;;6.80;4.10;;;5.70;85.90;;;5.56;58.88;94431.56;5099622;28;20456;-58
2021/12/20 03:36:18;;;;;;;5.50;5.03;;;5.70;86.00;;;5.55;58.89;94440.34;5097627;28;20472;-57
2021/12/20 03:38:45;;;;;;;5.73;5.23;;;5.70;85.80;;;5.51;59.32;94438.91;5098406;28;20484;-58
2021/12/20 03:41:13;;;;;;;4.87;4.47;;;5.70;86.00;;;5.49;59.12;94430.38;5095730;28;20473;-58
2021/12/20 03:43:41;;;;;;;4.70;4.30;;;5.70;86.20;;;5.48;59.22;94430.50;5094218;28;20450;-58
2021/12/20 03:46:09;;;;;;;5.63;5.13;;;5.70;86.30;;;5.45;59.71;94438.56;5088583;28;20531;-57
2021/12/20 03:48:36;;;;;;;5.40;4.57;;;5.60;86.50;;;5.43;59.23;94425.63;5101298;28;20449;-60
2021/12/20 03:51:04;;;;;;;5.10;4.53;;;5.60;86.60;;;5.41;59.71;94427.53;5098503;28;20473;-57
2021/12/20 03:53:33;;;;;;;5.83;4.80;;;5.60;86.90;;;5.39;59.53;94427.66;5094460;28;20462;-58
2021/12/20 03:56:00;;;;;;;4.93;4.53;;;5.60;86.90;;;5.36;60.02;94440.94;5094297;28;20477;-56
2021/12/20 03:58:27;;;;;;;4.50;4.10;;;5.50;87.20;;;5.32;60.06;94436.09;5093600;28;20450;-58
2021/12/20 04:00:56;;;;;;;4.60;4.20;;;5.50;87.30;;;5.30;60.27;94440.56;5091171;28;20482;-58
2021/12/20 04:03:24;;;;;;;6.50;5.90;;;5.50;87.50;;;5.30;60.62;94437.97;5097497;28;20450;-58
2021/12/20 04:05:52;;;;;;;6.60;6.00;;;5.50;87.90;;;5.29;60.46;94438.94;5088445;28;20541;-59
2021/12/20 04:08:20;;;;;;;8.03;5.57;;;5.40;88.10;;;5.28;60.32;94432.88;5098546;28;20498;-57
2021/12/20 04:10:47;;;;;;;6.50;5.33;;;5.40;88.10;;;5.29;60.57;94444.16;5099892;28;20569;-57
2021/12/20 04:13:14;;;;;;;5.80;5.20;;;5.40;88.50;;;5.28;60.72;94445.06;5100112;28;20521;-58
2021/12/20 04:15:41;;;;;;;6.30;5.70;;;5.40;88.70;;;5.28;60.94;94443.28;5100195;28;20453;-57
2021/12/20 04:18:10;;;;;;;6.17;5.53;;;5.40;88.60;;;5.28;60.79;94448.50;5099229;28;20966;-57
2021/12/20 04:20:37;;;;;;;5.73;5.23;;;5.40;89.00;;;5.28;61.24;94452.91;5094532;28;20485;-58
2021/12/20 04:23:05;;;;;;;5.60;5.00;;;5.40;89.40;;;5.27;61.91;94454.69;5100762;28;20457;-59
2021/12/20 04:25:32;;;;;;;6.93;5.47;;;5.50;90.00;;;5.28;61.81;94463.34;5100801;28;20510;-57
2021/12/20 04:28:00;;;;;;;6.73;6.03;;;5.40;90.00;;;5.27;61.82;94466.91;5095762;28;20452;-59
2021/12/20 04:30:31;;;;;;;6.80;5.53;;;5.40;90.10;;;5.26;61.37;94466.06;5102670;28;20540;-58
2021/12/20 04:32:58;;;;;;;7.13;5.87;;;5.40;90.00;;;5.26;61.59;94468.66;5102882;28;20436;-57
2021/12/20 04:35:27;;;;;;;7.43;5.90;;;5.40;90.20;;;5.27;61.59;94467.72;5094395;28;20961;-59
2021/12/20 04:37:56;;;;;;;9.10;6.20;;;5.50;90.30;;;5.27;61.65;94470.34;5104065;28;20593;-58
2021/12/20 04:40:23;;;;;;;7.63;5.80;;;5.40;90.20;;;5.30;61.90;94480.53;5094165;28;20493;-58
2021/12/20 04:42:55;;;;;;;6.93;6.27;;;5.50;90.30;;;5.30;61.85;94485.75;5094644;28;20515;-58
2021/12/20 04:45:23;;;;;;;5.83;5.30;;;5.50;90.30;;;5.31;61.67;94482.16;5098292;28;20454;-56
2021/12/20 04:47:50;;;;;;;5.87;5.27;;;5.50;90.20;;;5.32;62.79;94489.06;5099736;28;20479;-58
2021/12/20 04:50:19;;;;;;;4.60;4.17;;;5.50;90.80;;;5.37;61.89;94483.47;5097830;28;20453;-55
2021/12/20 04:52:47;;;;;;;7.37;5.50;;;5.50;90.60;;;5.37;62.06;94484.31;5090590;28;20497;-55
2021/12/20 04:55:15;;;;;;;5.33;4.83;;;5.50;90.50;;;5.38;61.42;94488.59;5092016;28;20470;-56
2021/12/20 04:57:43;;;;;;;4.90;4.50;;;5.60;90.20;;;5.38;61.54;94488.59;5095372;28;20466;-58
2021/12/20 05:00:13;;;;;;;7.70;6.00;;;5.60;90.30;;;5.39;62.99;94498.06;5097444;27;20509;-58
2021/12/20 05:02:40;;;;;;;5.63;5.00;;;5.60;91.30;;;5.43;62.71;94500.44;5098710;28;20477;-58
2021/12/20 05:05:09;;;;;;;5.40;4.90;;;5.60;91.30;;;5.44;61.77;94499.47;5105265;28;20442;-56
2021/12/20 05:07:38;;;;;;;9.80;5.10;;;5.60;90.50;;;5.45;61.69;94503.75;5098414;28;20465;-56
2021/12/20 05:10:12;;;;;;;5.67;4.80;;;5.60;90.30;;;5.43;61.86;94509.09;5096955;28;20878;-57
2021/12/20 05:12:39;;;;;;;6.20;5.40;;;5.60;90.30;;;5.43;63.20;94509.09;5095894;28;20568;-59
2021/12/20 05:15:07;;;;;;;5.83;4.93;;;5.60;91.50;;;5.46;62.36;94511.47;5098950;28;20453;-59
2021/12/20 05:17:36;;;;;;;5.53;4.70;;;5.60;90.80;;;5.45;61.86;94522.03;5101479;28;20822;-57
2021/12/20 05:20:04;;;;;;;5.60;4.97;;;5.60;90.30;;;5.41;61.58;94526.66;5100472;28;20496;-57
2021/12/20 05:22:31;;;;;;;4.20;3.90;;;5.60;90.20;;;5.35;61.80;94527.94;5097778;28;20462;-57
2021/12/20 05:24:59;;;;;;;5.73;4.20;;;5.60;90.30;;;5.31;61.26;94526.50;5094980;28;20762;-57
2021/12/20 05:27:27;;;;;;;4.97;4.30;;;5.50;90.10;;;5.25;61.68;94527.00;5090356;28;20497;-58
2021/12/20 05:29:55;;;;;;;4.60;4.30;;;5.50;90.20;;;5.21;61.64;94535.97;5091093;28;20819;-59
2021/12/20 05:32:22;;;;;;;5.40;4.90;;;5.40;90.20;;;5.18;61.41;94525.78;5093131;28;20499;-59
2021/12/20 05:34:49;;;;;;;5.63;4.60;;;5.40;90.30;;;5.14;61.30;94526.94;5089749;28;21012;-59
2021/12/20 05:37:17;;;;;;;4.77;3.57;;;5.30;90.20;;;5.14;62.22;94532.16;5089901;28;20561;-57
2021/12/20 05:39:45;;;;;;;5.20;4.83;;;5.30;90.40;;;5.13;61.95;94528.75;5096205;28;20507;-59
2021/12/20 05:42:12;;;;;;;8.00;5.53;;;5.30;90.50;;;5.13;62.00;94533.94;5095388;28;20474;-57
2021/12/20 05:44:41;;;;;;;7.27;5.50;;;5.30;90.60;;;5.13;62.11;94527.91;5100147;28;20445;-60
2021/12/20 05:47:08;;;;;;;6.80;4.53;;;5.30;90.60;;;5.12;62.25;94515.81;5089213;28;20465;-57
2021/12/20 05:49:36;;;;;;;6.27;4.47;;;5.30;90.70;;;5.10;62.20;94510.72;5090913;28;20449;-60
2021/12/20 05:52:04;;;;;;;6.00;4.30;;;5.30;90.60;;;5.10;62.46;94509.91;5096203;28;20477;-60
2021/12/20 05:54:31;;;;;;;4.87;4.13;;;5.30;90.70;;;5.10;62.44;94513.31;5095202;28;20461;-59
2021/12/20 05:56:59;;;;;;;4.77;4.30;;;5.30;90.70;;;5.10;62.65;94518.53;5094989;28;20492;-58
2021/12/20 05:59:26;;;;;;;4.20;3.90;;;5.30;90.80;;;5.11;62.56;94521.97;5092691;28;20454;-61
2021/12/20 06:01:55;;;;;;;3.70;3.50;;;5.30;90.80;;;5.11;62.35;94515.00;5094470;28;20478;-59
2021/12/20 06:04:22;;;;;;;5.53;4.67;;;5.30;90.60;;;5.10;62.55;94518.53;5096725;28;20457;-56
2021/12/20 06:06:50;;;;;;;3.63;3.33;;;5.30;90.70;;;5.09;62.30;94532.50;5094840;28;20469;-58
2021/12/20 06:09:17;;;;;;;4.87;4.50;;;5.30;90.60;;;5.10;62.39;94539.41;5100833;28;20449;-58
2021/12/20 06:11:44;;;;;;;4.47;4.17;;;5.30;90.70;;;5.11;62.56;94530.63;5092125;28;20469;-57
2021/12/20 06:14:12;;;;;;;5.87;4.80;;;5.30;90.70;;;5.14;62.73;94533.00;5098043;28;20458;-57
2021/12/20 06:16:39;;;;;;;6.63;5.27;;;5.30;90.80;;;5.17;62.44;94526.72;5091694;28;20535;-58
2021/12/20 06:19:08;;;;;;;5.10;4.70;;;5.40;90.80;;;5.20;62.02;94535.16;5092848;28;20536;-59
2021/12/20 06:21:36;;;;;;;5.97;4.33;;;5.40;90.70;;;5.23;62.37;94547.13;5097205;28;20493;-61
2021/12/20 06:24:03;;;;;;;4.70;4.10;;;5.40;90.70;;;5.25;62.11;94542.63;5096538;28;20498;-56
2021/12/20 06:26:31;;;;;;;5.00;4.60;;;5.40;90.70;;;5.28;62.33;94536.34;5100717;28;20470;-60
2021/12/20 06:28:58;;;;;;;5.93;5.00;;;5.50;90.70;;;5.30;62.42;94542.25;5096398;28;20445;-58
2021/12/20 06:31:25;;;;;;;5.13;4.63;;;5.40;90.70;;;5.32;62.06;94551.63;5092956;28;20531;-58
2021/12/20 06:33:53;;;;;;;10.60;5.20;;;5.50;90.70;;;5.34;62.06;94549.72;5091956;28;20462;-58
2021/12/20 06:36:21;;;;;;;5.87;4.97;;;5.50;90.60;;;5.33;62.11;94550.69;5091624;28;20477;-59
2021/12/20 06:38:49;;;;;;;6.40;5.50;;;5.50;90.60;;;5.35;62.05;94547.97;5094058;28;20477;-57
2021/12/20 06:41:18;;;;;;;5.97;5.47;;;5.50;90.50;;;5.37;61.83;94554.72;5096221;28;20850;-60
2021/12/20 06:43:45;;;;;;;4.40;4.00;;;5.50;90.40;;;5.38;61.98;94556.38;5093594;28;20465;-58
2021/12/20 06:46:13;;;;;;;4.23;3.93;;;5.60;90.30;;;5.37;61.68;94567.75;5094791;28;20466;-59
2021/12/20 06:48:41;;;;;;;4.80;4.20;;;5.60;90.30;;;5.37;61.42;94565.16;5095390;28;20462;-59
2021/12/20 06:51:08;;;;;;;4.53;3.80;;;5.50;90.30;;;5.38;61.47;94564.22;5095611;28;20462;-58
2021/12/20 06:53:37;;;;;;;4.30;4.00;;;5.50;90.20;;;5.39;61.55;94565.03;5095511;28;20449;-60
2021/12/20 06:56:05;;;;;;;6.40;4.10;;;5.60;90.20;;;5.36;61.35;94567.88;5095479;28;20481;-57
2021/12/20 06:58:32;;;;;;;4.63;4.23;;;5.60;90.20;;;5.32;61.37;94567.28;5100374;28;20469;-59
2021/12/20 07:01:00;;;;;;;7.10;4.13;;;5.50;90.10;;;5.29;61.85;94570.13;5090813;28;20500;-57
2021/12/20 07:03:28;;;;;;;4.20;3.90;;;5.50;90.30;;;5.28;61.77;94578.88;5093018;28;20492;-59
2021/12/20 07:05:56;;;;;;;3.67;3.37;;;5.50;90.30;;;5.29;61.75;94574.50;5090979;28;20649;-60
2021/12/20 07:08:23;;;;;;;3.67;3.37;;;5.40;90.30;;;5.33;61.79;94574.16;5092178;28;20454;-56
2021/12/20 07:10:52;;;;;;;4.97;3.60;;;5.50;90.30;;;5.35;61.71;94556.63;5093139;28;20482;-58
2021/12/20 07:13:21;;;;;;;3.80;3.50;;;5.50;90.30;;;5.37;61.66;94572.97;5096595;28;20441;-59
2021/12/20 07:15:49;;;;;;;7.80;5.20;;;5.50;90.30;;;5.38;61.55;94566.81;5097023;28;20485;-57
2021/12/20 07:18:16;;;;;;;7.57;6.20;;;5.60;90.30;;;5.40;61.74;94561.50;5096695;28;20531;-56
2021/12/20 07:20:43;;;;;;;6.97;5.27;;;5.60;90.30;;;5.45;61.82;94568.97;5095383;28;20489;-60
2021/12/20 07:23:10;;;;;;;5.10;4.67;;;5.60;90.30;;;5.51;61.52;94573.72;5095868;28;20548;-60
2021/12/20 07:25:38;;;;;;;5.87;5.27;;;5.60;90.30;;;5.57;61.41;94578.47;5099719;28;20527;-60
2021/12/20 07:28:08;;;;;;;7.73;5.70;;;5.70;90.40;;;5.59;61.58;94563.53;5103191;28;20454;-58
2021/12/20 07:30:36;;;;;;;7.03;5.07;;;5.70;90.20;;;5.61;61.63;94574.69;5091280;28;20446;-60
2021/12/20 07:33:05;;;;;;;6.00;5.17;;;5.70;90.10;;;5.65;61.19;94570.06;5088162;28;20450;-63
2021/12/20 07:35:32;;;;;;;7.70;6.13;;;5.80;90.10;;;5.69;61.01;94572.31;5094323;28;20472;-59
2021/12/20 07:38:01;;;;;;;6.27;5.00;;;5.80;90.10;;;5.76;61.34;94577.88;5099109;28;21023;-58
2021/12/20 07:40:28;;;;;;;7.90;6.07;;;5.90;90.10;;;5.85;61.06;94578.97;5093331;28;20485;-57
2021/12/20 07:42:55;;;;;;;6.00;5.23;;;5.90;90.10;;;5.94;60.83;94580.88;5093926;28;20830;-60
2021/12/20 07:45:24;;;;;;;7.10;5.43;;;6.10;90.00;;;6.01;60.65;94579.47;5093165;28;20830;-57
2021/12/20 07:47:52;;;;;;;5.00;4.50;;;6.10;89.60;;;6.14;60.61;94576.75;5095359;28;20505;-57
2021/12/20 07:50:20;;;;;;;4.70;3.90;;;6.30;89.60;;;6.54;60.71;94583.22;5100933;28;20825;-58
2021/12/20 07:52:47;;;;;;;6.77;5.20;;;6.60;90.40;;;7.30;60.04;94575.31;5094324;28;20466;-59
2021/12/20 07:55:15;;;;;;;8.57;6.00;;;7.20;90.00;;;7.99;58.30;94582.56;5098259;28;20450;-58
2021/12/20 07:57:42;;;;;;;5.80;5.23;;;7.90;87.60;;;8.85;56.80;94570.84;5099370;28;20474;-57
2021/12/20 08:00:12;;;;;;;4.60;4.20;;;8.70;86.60;;;9.66;55.73;94573.97;5102564;27;20481;-58
2021/12/20 08:02:41;;;;;;;6.13;5.07;;;9.40;84.50;;;10.07;53.72;94575.50;5099800;28;20525;-57
2021/12/20 08:05:10;;;;;;;6.33;5.37;;;9.90;80.80;;;10.22;53.19;94587.22;5106816;28;20441;-58
2021/12/20 08:07:37;;;;;;;5.53;4.97;;;10.20;78.30;;;10.12;51.85;94589.06;5104904;28;20473;-59
2021/12/20 08:10:05;;;;;;;7.10;5.40;;;10.20;75.20;;;9.86;52.80;94587.06;5101311;28;20453;-60
2021/12/20 08:12:32;;;;;;;8.70;5.27;;;10.00;75.80;;;9.53;53.28;94589.22;5105370;28;20530;-61
2021/12/20 08:15:00;;;;;;;10.40;5.60;;;9.70;76.40;;;9.24;52.85;94589.22;5101553;28;20500;-57
2021/12/20 08:17:28;;;;;;;7.67;5.90;;;9.50;76.20;;;8.98;53.88;94595.00;5100537;28;20550;-58
2021/12/20 08:19:57;;;;;;;8.50;7.40;;;9.20;77.50;;;8.77;53.87;94595.13;5097897;28;20450;-59
2021/12/20 08:22:25;;;;;;;7.70;6.70;;;9.00;78.00;;;8.56;54.68;94601.28;5092427;28;20477;-59
2021/12/20 08:24:52;;;;;;;7.03;6.33;;;8.80;78.40;;;8.39;54.54;94600.09;5092689;28;21051;-57
2021/12/20 08:27:20;;;;;;;7.33;6.00;;;8.60;78.70;;;8.23;54.83;94595.38;5098569;28;20466;-56
2021/12/20 08:29:47;;;;;;;7.57;4.33;;;8.40;79.30;;;8.11;55.33;94599.03;5100402;28;20441;-56
2021/12/20 08:32:14;;;;;;;4.57;4.17;;;8.30;80.30;;;7.97;55.25;94599.41;5094701;28;20554;-56
2021/12/20 08:34:42;;;;;;;5.07;2.73;;;8.10;80.00;;;7.84;55.28;94591.75;5092255;28;20450;-59
2021/12/20 08:37:10;;;;;;;2.47;2.27;;;8.00;80.40;;;7.71;56.14;94599.81;5091793;28;20477;-58
2021/12/20 08:39:38;;;;;;;2.30;1.70;;;7.90;80.90;;;7.58;55.78;94601.81;5096339;28;20973;-59
2021/12/20 08:42:06;;;;;;;1.20;1.10;;;7.80;80.80;;;7.43;55.93;94602.09;5097845;28;20485;-59
2021/12/20 08:44:33;;;;;;;1.80;1.70;;;7.60;80.40;;;7.26;55.60;94594.84;5096474;28;20450;-59
2021/12/20 08:47:01;;;;;;;1.90;1.80;;;7.50;80.30;;;7.10;56.27;94601.31;5101417;28;20473;-59
2021/12/20 08:49:29;;;;;;;1.60;1.50;;;7.30;80.30;;;7.02;55.92;94601.13;5100535;28;20453;-59
2021/12/20 08:51:56;;;;;;;1.93;1.83;;;7.20;80.30;;;6.94;56.03;94600.91;5099627;28;20933;-58
2021/12/20 08:54:27;;;;;;;2.87;2.63;;;7.10;80.70;;;6.87;56.48;94599.75;5096927;28;20446;-58
2021/12/20 08:56:55;;;;;;;3.13;2.83;;;7.00;81.20;;;6.78;56.96;94591.69;5090730;28;20691;-57
2021/12/20 08:59:22;;;;;;;4.40;2.87;;;6.90;81.40;;;6.72;56.83;94600.00;5092290;28;20549;-59
2021/12/20 09:01:49;;;;;;;1.57;1.47;;;6.90;81.80;;;6.66;56.57;94603.13;5093015;28;20500;-59
2021/12/20 09:04:18;;;;;;;1.70;1.60;;;6.80;81.40;;;6.63;55.91;94603.34;5098491;28;20545;-58
2021/12/20 09:06:46;;;;;;;1.67;1.57;;;6.80;80.90;;;6.62;56.27;94599.09;5094424;28;20473;-57
2021/12/20 09:09:15;;;;;;;2.00;1.80;;;6.80;81.40;;;6.60;57.04;94598.38;5097808;28;20830;-59
2021/12/20 09:11:44;;;;;;;1.73;1.63;;;6.80;81.40;;;6.59;56.88;94601.97;5097046;28;20542;-60
2021/12/20 09:14:11;;;;;;;2.43;1.77;;;6.70;82.00;;;6.54;56.53;94598.91;5099015;28;20454;-59
2021/12/20 09:16:38;;;;;;;2.53;1.40;;;6.70;80.80;;;6.50;56.30;94592.25;5100839;28;20480;-59
2021/12/20 09:19:06;;;;;;;1.73;1.63;;;6.70;81.40;;;6.51;56.75;94592.13;5099189;28;20953;-57
2021/12/20 09:21:34;;;;;;;1.60;1.50;;;6.60;82.30;;;6.50;57.09;94589.63;5095968;28;20493;-56
2021/12/20 09:24:03;;;;;;;1.40;1.30;;;6.60;82.10;;;6.53;56.77;94581.53;5102312;28;20465;-58
2021/12/20 09:26:30;;;;;;;1.73;1.63;;;6.70;82.40;;;6.54;56.88;94596.28;5097772;28;20852;-56
2021/12/20 09:28:59;;;;;;;1.37;1.17;;;6.70;81.80;;;6.56;56.66;94594.38;5095908;28;20972;-57
2021/12/20 09:31:26;;;;;;;1.60;1.50;;;6.70;81.30;;;6.56;55.97;94581.31;5093328;28;20594;-61
2021/12/20 09:33:55;;;;;;;2.97;2.33;;;6.70;80.80;;;6.54;56.25;94585.84;5099427;28;20450;-57
2021/12/20 09:36:28;;;;;;;1.90;1.80;;;6.70;81.40;;;6.53;56.51;94597.22;5100954;28;20467;-61
2021/12/20 09:38:55;;;;;;;1.77;1.67;;;6.70;81.50;;;6.54;56.27;94594.50;5099861;28;20512;-59
2021/12/20 09:41:59;;;;;;;1.50;1.40;;;6.70;81.50;;;6.55;55.73;94590.09;5097347;28;20489;-60
2021/12/20 09:44:22;;;;;;;2.00;1.90;;;6.70;80.70;;;6.62;56.72;94593.88;5095833;28;20442;-59
2021/12/20 09:46:49;;;;;;;1.40;1.30;;;6.70;81.30;;;6.69;56.56;94589.81;5100774;28;20466;-59
2021/12/20 09:49:17;;;;;;;1.80;1.30;;;6.80;81.90;;;6.78;55.66;94594.28;5096507;28;20442;-58
2021/12/20 09:51:44;;;;;;;1.30;1.20;;;6.90;80.70;;;6.95;56.44;94592.09;5097505;28;20550;-59
2021/12/20 09:54:11;;;;;;;1.60;1.50;;;7.00;81.00;;;7.15;55.60;94585.25;5102049;28;20441;-57
2021/12/20 09:56:39;;;;;;;1.03;1.03;;;7.20;81.00;;;7.17;55.69;94586.78;5096668;28;20552;-59
2021/12/20 09:59:06;;;;;;;1.60;1.50;;;7.20;80.20;;;7.16;55.17;94595.59;5095776;28;20453;-60
2021/12/20 10:01:35;;;;;;;1.67;1.40;;;7.30;80.40;;;7.13;55.25;94590.59;5093575;28;21032;-58
2021/12/20 10:04:04;;;;;;;2.03;1.90;;;7.20;79.60;;;7.09;54.73;94593.59;5091791;28;21032;-61
2021/12/20 10:06:32;;;;;;;3.63;2.33;;;7.20;79.80;;;7.02;55.18;94595.03;5093005;28;20937;-57
2021/12/20 10:09:09;;;;;;;1.67;1.40;;;7.20;80.20;;;6.91;55.22;94602.00;5091272;28;20447;-57
2021/12/20 10:11:37;;;;;;;2.13;2.03;;;7.10;80.20;;;6.87;55.73;94597.13;5092047;28;20477;-60
2021/12/20 10:14:06;;;;;;;2.10;2.00;;;7.00;80.30;;;6.87;56.03;94589.28;5092183;28;20511;-56
2021/12/20 10:16:35;;;;;;;2.30;1.87;;;7.00;80.30;;;6.88;55.68;94583.94;5091711;28;20498;-59
2021/12/20 10:19:02;;;;;;;5.60;1.77;;;7.00;81.00;;;6.89;56.39;94576.91;5094379;28;20529;-57
2021/12/20 10:21:41;;;;;;;2.07;1.97;;;7.10;81.10;;;7.00;55.93;94585.56;5093070;28;20490;-60
2021/12/20 10:24:08;;;;;;;4.03;1.77;;;7.10;81.10;;;7.08;55.79;94594.53;5099658;28;21167;-58
2021/12/20 10:26:40;;;;;;;1.77;1.67;;;7.20;80.30;;;7.07;55.99;94601.56;5099529;28;20473;-59
2021/12/20 10:29:18;;;;;;;2.60;1.80;;;7.20;80.60;;;7.03;55.59;94583.63;5097657;28;21006;-60
2021/12/20 10:31:47;;;;;;;1.60;1.50;;;7.10;80.90;;;6.93;55.56;94592.22;5098315;28;20564;-58
2021/12/20 10:34:14;;;;;;;2.23;2.10;;;7.10;80.70;;;6.88;56.03;94590.94;5099207;28;20515;-59
2021/12/20 10:36:52;;;;;;;1.80;1.70;;;7.00;81.00;;;6.79;56.72;94592.53;5092376;28;20470;-59
2021/12/20 10:39:32;;;;;;;2.40;2.30;;;6.90;81.40;;;6.68;56.31;94593.38;5090876;28;20449;-58
2021/12/20 10:42:18;;;;;;;2.10;1.93;;;6.90;82.00;;;6.59;56.78;94596.72;5092280;28;20493;-60
2021/12/20 10:44:45;;;;;;;2.20;2.10;;;6.80;82.40;;;6.49;57.76;94591.41;5088309;28;20458;-60
2021/12/20 10:47:26;;;;;;;3.67;1.93;;;6.70;83.20;;;6.44;57.84;94589.19;5090458;28;20693;-60
2021/12/20 10:49:54;;;;;;;1.57;1.47;;;6.60;83.80;;;6.43;57.74;94590.13;5099050;28;20446;-59